Time;durP1;ratioP1;P1;durP2;ratioP2;P2;SDS_P1;SDS_P2;PMS_P1;PMS_P2;Temp;Humidity;BMP_temperature;BMP_pressure;BME280_temperature;BME280_humidity;BME280_pressure;Samples;Min_cycle;Max_cycle;Signal;HPM_P1;HPM_P2
2023/02/14 00:01:23;;;;;;;24.57;14.93;;;;;;;3.24;83.69;100364.23;1729819;83;21211;-82
2023/02/14 00:04:29;;;;;;;21.50;14.23;;;;;;;3.66;82.41;100357.55;1732471;83;21172;-81
2023/02/14 00:07:44;;;;;;;19.87;11.90;;;;;;;3.61;81.96;100349.47;1730775;81;21721;-81
2023/02/14 00:10:49;;;;;;;20.37;13.18;;;;;;;3.49;82.40;100347.33;1732206;83;21211;-81
2023/02/14 00:17:35;;;;;;;24.57;13.60;;;;;;;3.45;82.98;100315.63;1742857;79;21217;-81
2023/02/14 00:20:41;;;;;;;19.73;12.30;;;;;;;3.39;82.82;100312.56;1769986;81;21765;-82
2023/02/14 00:23:47;;;;;;;23.12;13.72;;;;;;;3.62;82.51;100320.92;1759389;81;21756;-81
2023/02/14 00:26:53;;;;;;;21.70;12.73;;;;;;;3.44;82.78;100334.70;1759786;81;21227;-82
2023/02/14 00:30:01;;;;;;;21.85;14.03;;;;;;;3.35;83.29;100332.77;1734704;81;21239;-81
2023/02/14 00:33:08;;;;;;;26.75;15.05;;;;;;;3.79;82.12;100321.69;1758996;81;21701;-81
2023/02/14 00:36:16;;;;;;;26.48;15.38;;;;;;;3.43;83.05;100305.91;1759150;81;21259;-81
2023/02/14 00:39:15;;;;;;;25.62;14.43;;;;;;;3.56;83.14;100306.58;1759715;81;21155;-81
2023/02/14 00:42:21;;;;;;;28.12;16.80;;;;;;;3.83;81.76;100293.88;1758506;81;21242;-82
2023/02/14 00:45:27;;;;;;;28.90;16.80;;;;;;;3.99;81.17;100284.77;1759740;81;21164;-82
2023/02/14 00:48:33;;;;;;;29.92;17.48;;;;;;;3.99;81.06;100278.50;1759379;81;21204;-81
2023/02/14 00:51:40;;;;;;;35.73;18.80;;;;;;;3.80;81.46;100277.91;1758338;81;21587;-82
2023/02/14 00:54:46;;;;;;;30.85;17.67;;;;;;;3.78;81.32;100269.93;1758195;81;21164;-82
2023/02/14 00:57:52;;;;;;;28.65;16.55;;;;;;;3.80;81.20;100266.58;1759694;81;21247;-81
2023/02/14 01:00:59;;;;;;;31.45;16.55;;;;;;;3.65;82.15;100261.16;1758888;81;21247;-82
2023/02/14 01:04:06;;;;;;;27.55;15.55;;;;;;;3.79;81.40;100264.88;1759584;81;21164;-82
2023/02/14 01:07:12;;;;;;;25.85;15.60;;;;;;;3.84;81.31;100255.00;1758132;81;21188;-81
2023/02/14 01:10:19;;;;;;;29.35;16.62;;;;;;;4.17;80.58;100249.81;1759003;81;21188;-81
2023/02/14 01:13:24;;;;;;;23.42;14.13;;;;;;;3.72;81.80;100241.22;1759906;81;21188;-82
2023/02/14 01:16:31;;;;;;;24.72;14.25;;;;;;;3.76;82.32;100227.25;1758973;81;21749;-81
2023/02/14 01:19:41;;;;;;;27.75;16.93;;;;;;;4.20;81.27;100218.41;1762919;81;21163;-82
2023/02/14 01:22:48;;;;;;;30.60;16.57;;;;;;;4.07;80.79;100211.88;1761357;81;21150;-81
2023/02/14 01:25:53;;;;;;;26.52;16.45;;;;;;;4.20;80.53;100223.83;1762813;81;21168;-82
2023/02/14 01:28:58;;;;;;;26.25;16.65;;;;;;;4.43;80.00;100231.73;1762849;81;21148;-82
2023/02/14 01:32:04;;;;;;;31.97;17.95;;;;;;;4.36;79.94;100230.91;1761424;81;21705;-82
2023/02/14 01:35:11;;;;;;;29.87;16.35;;;;;;;4.22;80.41;100221.83;1760885;81;21172;-82
2023/02/14 01:38:18;;;;;;;28.42;17.23;;;;;;;4.34;80.20;100209.90;1762767;81;22029;-81
2023/02/14 01:41:24;;;;;;;25.57;15.23;;;;;;;4.18;80.98;100202.78;1762188;81;21199;-82
2023/02/14 01:44:47;;;;;;;27.20;16.62;;;;;;;4.18;81.60;100191.10;1762754;81;21164;-81
2023/02/14 01:47:58;;;;;;;29.07;15.88;;;;;;;4.10;81.74;100186.40;1761858;80;21171;-82
2023/02/14 01:51:04;;;;;;;25.80;15.25;;;;;;;4.39;80.79;100178.84;1762489;81;21768;-81
2023/02/14 01:54:11;;;;;;;29.20;16.23;;;;;;;4.43;81.07;100177.57;1762596;81;21164;-82
2023/02/14 01:57:17;;;;;;;30.17;16.93;;;;;;;4.15;81.47;100170.59;1729920;83;21200;-81
2023/02/14 02:03:45;;;;;;;28.07;16.62;;;;;;;4.19;81.81;100163.91;1750507;82;21809;-81
2023/02/14 02:06:57;;;;;;;31.17;17.32;;;;;;;4.07;82.46;100174.48;1750862;82;21837;-82
2023/02/14 02:10:06;;;;;;;24.97;15.33;;;;;;;4.25;82.38;100174.68;1751122;82;21141;-81
2023/02/14 02:13:14;;;;;;;28.07;17.03;;;;;;;3.96;82.65;100157.01;1750908;82;21172;-82
2023/02/14 02:16:34;;;;;;;29.95;17.73;;;;;;;3.98;83.15;100161.77;1751132;82;21896;-81
2023/02/14 02:19:49;;;;;;;21.12;11.75;;;;;;;4.30;82.14;100157.02;1736481;81;21205;-81
2023/02/14 02:23:28;;;;;;;32.78;18.25;;;;;;;4.22;81.83;100153.28;1715747;82;21214;-82
2023/02/14 02:27:04;;;;;;;26.37;16.73;;;;;;;4.16;82.16;100147.94;1741543;82;21558;-81
2023/02/14 02:30:50;;;;;;;30.92;17.20;;;;;;;4.17;82.98;100153.70;1748238;82;21204;-81
2023/02/14 02:34:38;;;;;;;28.05;16.70;;;;;;;4.11;83.45;100148.85;1748349;82;21228;-82
2023/02/14 02:38:02;;;;;;;27.32;16.80;;;;;;;4.44;82.11;100142.20;1748639;82;21208;-81
2023/02/14 02:41:23;;;;;;;27.52;16.40;;;;;;;4.20;82.57;100142.60;1746550;82;21255;-81
2023/02/14 02:44:49;;;;;;;27.10;15.55;;;;;;;4.61;81.55;100142.88;1748463;82;21164;-81
2023/02/14 02:48:15;;;;;;;27.93;16.60;;;;;;;4.42;82.27;100137.91;1748405;82;22298;-81
2023/02/14 02:55:06;;;;;;;26.33;16.45;;;;;;;4.47;82.13;100128.86;1748053;82;21160;-81
2023/02/14 02:58:12;;;;;;;28.98;18.40;;;;;;;4.73;81.11;100117.83;1748564;82;21294;-81
2023/02/14 03:01:22;;;;;;;25.80;16.90;;;;;;;4.51;81.92;100109.98;1741745;82;21828;-81
2023/02/14 03:07:52;;;;;;;27.13;16.17;;;;;;;4.56;82.50;100102.28;1748594;82;21164;-81
2023/02/14 03:10:59;;;;;;;24.92;14.87;;;;;;;4.70;81.83;100094.22;1752332;81;21196;-82
2023/02/14 03:14:25;;;;;;;25.30;16.48;;;;;;;4.53;82.06;100096.67;1714078;82;21156;-81
2023/02/14 03:17:48;;;;;;;24.57;16.32;;;;;;;4.78;81.58;100088.95;1748097;82;21220;-81
2023/02/14 03:21:04;;;;;;;25.37;16.02;;;;;;;5.10;80.34;100079.12;1695258;81;21195;-81
2023/02/14 03:24:35;;;;;;;23.15;14.75;;;;;;;5.22;79.46;100073.00;1775643;81;21137;-81
2023/02/14 03:27:40;;;;;;;24.77;16.00;;;;;;;5.07;80.08;100061.78;1775452;81;21140;-81
2023/02/14 03:30:57;;;;;;;28.05;16.73;;;;;;;4.69;81.32;100052.73;1774470;81;21657;-81
2023/02/14 03:34:37;;;;;;;24.10;14.95;;;;;;;4.91;80.56;100044.78;1774578;79;21212;-81
2023/02/14 03:37:51;;;;;;;24.18;14.50;;;;;;;4.92;80.83;100040.21;1775506;81;21246;-81
2023/02/14 03:41:10;;;;;;;25.23;14.80;;;;;;;5.28;79.66;100029.05;1775505;81;21211;-81
2023/02/14 03:44:17;;;;;;;24.10;15.20;;;;;;;5.09;79.72;100021.33;1775617;81;21698;-81
2023/02/14 03:47:27;;;;;;;23.20;15.18;;;;;;;4.87;80.41;100015.75;1775512;81;21463;-81
2023/02/14 03:50:33;;;;;;;24.10;15.38;;;;;;;5.14;79.83;100008.69;1775555;81;21698;-81
2023/02/14 03:53:42;;;;;;;23.70;15.38;;;;;;;5.01;80.02;100007.66;1775512;81;21161;-81
2023/02/14 03:57:23;;;;;;;24.50;15.10;;;;;;;4.86;80.45;100004.56;1775743;81;21204;-81
2023/02/14 04:00:28;;;;;;;23.67;14.47;;;;;;;4.81;81.33;100001.95;1777042;81;21144;-81
2023/02/14 04:03:34;;;;;;;25.88;15.05;;;;;;;4.40;82.76;100001.81;1776252;81;21116;-81
2023/02/14 04:06:39;;;;;;;23.55;15.20;;;;;;;4.50;82.98;99995.38;1776632;81;21155;-81
2023/02/14 04:09:45;;;;;;;26.00;15.68;;;;;;;4.28;83.90;99991.14;1776693;81;21745;-81
2023/02/14 04:12:51;;;;;;;23.80;14.38;;;;;;;4.53;83.23;99990.18;1776954;81;21157;-81
2023/02/14 04:15:58;;;;;;;22.82;15.23;;;;;;;4.49;83.12;99974.71;1776687;81;21204;-81
2023/02/14 04:19:23;;;;;;;23.30;14.23;;;;;;;4.32;83.62;99966.81;1776675;81;21730;-81
2023/02/14 04:22:29;;;;;;;24.70;14.68;;;;;;;4.23;84.35;99953.29;1723602;83;21204;-81
2023/02/14 04:25:34;;;;;;;25.82;13.95;;;;;;;3.98;84.60;99948.83;1701945;83;21254;-81
2023/02/14 04:28:41;;;;;;;22.70;13.48;;;;;;;4.04;84.35;99948.75;1723434;83;21590;-81
2023/02/14 04:31:47;;;;;;;23.22;13.15;;;;;;;4.28;84.57;99948.30;1723363;83;21204;-81
2023/02/14 04:34:54;;;;;;;22.17;14.20;;;;;;;4.20;84.34;99942.77;1723464;83;21229;-81
2023/02/14 04:38:00;;;;;;;23.12;13.98;;;;;;;4.05;85.17;99941.01;1723489;83;21164;-81
2023/02/14 04:41:06;;;;;;;22.73;13.65;;;;;;;4.24;84.68;99940.98;1723538;83;21832;-81
2023/02/14 04:44:11;;;;;;;28.85;15.00;;;;;;;4.40;84.03;99938.17;1723485;83;21275;-81
2023/02/14 04:47:16;;;;;;;23.47;13.88;;;;;;;4.26;84.19;99934.91;1723481;83;21204;-81
2023/02/14 04:50:24;;;;;;;20.17;13.22;;;;;;;4.22;84.57;99928.07;1723549;83;21188;-81
2023/02/14 04:53:29;;;;;;;22.65;13.08;;;;;;;4.26;84.81;99927.29;1723507;83;21801;-81
2023/02/14 04:56:35;;;;;;;20.77;13.95;;;;;;;4.08;85.44;99913.63;1723457;83;21244;-81
2023/02/14 04:59:40;;;;;;;20.77;13.30;;;;;;;4.24;85.17;99916.62;1723560;83;21172;-81
2023/02/14 05:02:46;;;;;;;26.48;14.05;;;;;;;4.12;84.61;99909.64;1723199;83;21769;-81
2023/02/14 05:05:51;;;;;;;24.75;14.05;;;;;;;4.14;86.58;99914.91;1723479;83;21794;-81
2023/02/14 05:08:56;;;;;;;22.00;12.63;;;;;;;4.49;84.80;99921.89;1723432;83;21161;-81
2023/02/14 05:12:02;;;;;;;20.02;13.22;;;;;;;4.30;85.26;99920.59;1723500;83;21240;-81
2023/02/14 05:15:08;;;;;;;23.05;12.82;;;;;;;4.31;85.03;99925.85;1723443;83;21781;-80
2023/02/14 05:18:14;;;;;;;24.55;13.88;;;;;;;4.34;84.97;99929.63;1723334;83;21169;-81
2023/02/14 05:21:19;;;;;;;21.10;13.30;;;;;;;4.25;85.25;99926.44;1733811;80;21219;-81
2023/02/14 05:24:24;;;;;;;21.75;14.70;;;;;;;4.29;85.39;99933.78;1752405;82;21164;-80
2023/02/14 05:27:30;;;;;;;22.20;12.98;;;;;;;3.88;86.48;99933.59;1729536;82;21792;-81
2023/02/14 05:30:36;;;;;;;24.98;13.35;;;;;;;4.35;86.36;99925.91;1752256;82;21176;-81
2023/02/14 05:33:41;;;;;;;20.00;12.33;;;;;;;4.39;85.88;99926.99;1752481;82;21290;-80
2023/02/14 05:36:47;;;;;;;20.62;12.18;;;;;;;4.24;85.73;99924.73;1742395;81;21271;-78
2023/02/14 05:39:53;;;;;;;21.27;13.10;;;;;;;3.93;86.94;99925.91;1755813;81;21212;-80
2023/02/14 05:42:55;;;;;;;19.55;11.80;;;;;;;4.10;85.84;99916.56;1752551;82;21144;-80
2023/02/14 05:46:01;;;;;;;21.90;13.00;;;;;;;4.19;86.12;99922.09;1752468;82;21753;-80
2023/02/14 05:49:07;;;;;;;18.02;12.18;;;;;;;4.36;84.87;99927.62;1750085;82;21734;-81
2023/02/14 05:52:13;;;;;;;20.80;12.78;;;;;;;4.16;85.43;99925.95;1751783;82;21220;-80
2023/02/14 05:55:17;;;;;;;17.70;10.98;;;;;;;4.16;85.42;99916.48;1752291;82;22036;-80
2023/02/14 05:58:24;;;;;;;18.40;11.68;;;;;;;3.75;86.18;99923.91;1752387;82;21199;-81
2023/02/14 06:01:30;;;;;;;22.32;12.40;;;;;;;3.58;86.79;99925.98;1752395;82;21302;-80
2023/02/14 06:04:35;;;;;;;16.32;10.72;;;;;;;3.94;86.17;99911.38;1752424;82;21757;-79
2023/02/14 06:07:44;;;;;;;18.37;11.60;;;;;;;3.81;86.58;99915.23;1752328;82;21188;-80
2023/02/14 06:10:50;;;;;;;18.25;11.38;;;;;;;3.88;86.21;99910.09;1752451;82;21173;-80
2023/02/14 06:13:56;;;;;;;15.53;10.18;;;;;;;4.27;84.58;99910.89;1750175;81;21165;-81
2023/02/14 06:17:02;;;;;;;15.53;9.85;;;;;;;3.89;85.47;99904.19;1715619;83;21182;-80
2023/02/14 06:20:12;;;;;;;19.15;11.38;;;;;;;4.25;85.00;99902.08;1730869;82;21182;-80
2023/02/14 06:23:16;;;;;;;17.85;10.13;;;;;;;4.11;84.88;99895.77;1741185;81;21176;-81
2023/02/14 06:26:26;;;;;;;15.38;10.32;;;;;;;4.11;85.20;99893.05;1738746;82;21229;-81
2023/02/14 06:29:30;;;;;;;15.05;9.33;;;;;;;4.16;84.81;99896.18;1708467;83;21145;-80
2023/02/14 06:32:35;;;;;;;16.70;9.70;;;;;;;3.98;85.42;99892.00;1718235;82;21213;-81
2023/02/14 06:35:41;;;;;;;13.90;9.60;;;;;;;3.76;85.52;99899.05;1687906;85;21237;-79
2023/02/14 06:38:40;;;;;;;16.00;9.53;;;;;;;3.72;86.24;99886.84;1715153;83;21157;-80
2023/02/14 06:41:32;;;;;;;16.73;9.25;;;;;;;3.92;85.64;99887.67;1687620;83;21161;-80
2023/02/14 06:44:37;;;;;;;17.77;10.85;;;;;;;3.80;85.77;99889.16;1718960;83;21155;-79
2023/02/14 06:47:43;;;;;;;14.90;10.55;;;;;;;3.78;86.14;99880.34;1711988;83;21718;-80
2023/02/14 06:50:49;;;;;;;15.18;10.48;;;;;;;4.01;85.49;99878.19;1722418;82;21192;-80
2023/02/14 06:53:48;;;;;;;14.70;10.08;;;;;;;3.91;86.25;99883.27;1730826;83;21176;-80
2023/02/14 06:56:52;;;;;;;14.43;9.93;;;;;;;3.72;86.39;99879.58;1727943;83;21235;-80
2023/02/14 06:59:57;;;;;;;15.28;9.45;;;;;;;3.75;86.09;99880.62;1724094;83;21228;-80
2023/02/14 07:03:03;;;;;;;13.18;9.08;;;;;;;3.33;87.68;99880.88;1651919;86;21523;-79
2023/02/14 07:06:09;;;;;;;14.20;9.28;;;;;;;3.59;86.91;99875.79;1685176;85;21257;-80
2023/02/14 07:09:19;;;;;;;12.15;8.58;;;;;;;3.39;87.30;99881.31;1694574;84;21168;-80
2023/02/14 07:12:22;;;;;;;14.33;8.78;;;;;;;3.48;87.59;99870.53;1694131;84;21251;-80
2023/02/14 07:15:27;;;;;;;14.80;9.30;;;;;;;3.87;86.31;99868.31;1694524;84;21323;-81
2023/02/14 07:18:33;;;;;;;13.85;8.55;;;;;;;3.52;87.44;99873.79;1694637;84;21168;-81
2023/02/14 07:21:31;;;;;;;14.07;9.03;;;;;;;4.18;85.84;99869.80;1687571;83;21180;-81
2023/02/14 07:24:35;;;;;;;13.55;8.98;;;;;;;3.99;85.71;99864.43;1704488;82;21756;-79
2023/02/14 07:27:42;;;;;;;13.70;9.25;;;;;;;4.11;85.26;99870.05;1738260;82;21165;-79
2023/02/14 07:30:49;;;;;;;12.58;9.63;;;;;;;4.43;84.74;99864.77;1738207;82;21190;-79
2023/02/14 07:33:54;;;;;;;14.55;9.05;;;;;;;4.12;84.61;99867.69;1719578;82;21145;-81
2023/02/14 07:37:00;;;;;;;12.85;8.88;;;;;;;4.07;85.04;99865.92;1745988;82;21210;-81
2023/02/14 07:40:06;;;;;;;12.60;8.95;;;;;;;4.19;84.62;99870.18;1751476;82;21176;-79
2023/02/14 07:43:12;;;;;;;12.88;9.28;;;;;;;3.92;86.12;99860.11;1733975;82;21174;-79
2023/02/14 07:46:18;;;;;;;14.85;9.68;;;;;;;4.09;85.80;99858.50;1707223;82;22174;-79
2023/02/14 07:49:24;;;;;;;14.80;9.68;;;;;;;4.18;85.71;99860.83;1715428;83;21171;-79
2023/02/14 07:52:29;;;;;;;9.80;7.42;;;;;;;4.22;85.73;99855.48;1728496;82;21754;-79
2023/02/14 07:55:35;;;;;;;10.85;6.85;;;;;;;4.27;85.72;99855.89;1724605;81;21244;-81
2023/02/14 07:58:41;;;;;;;9.08;6.78;;;;;;;4.30;85.71;99853.75;1721521;82;21691;-79
2023/02/14 08:01:48;;;;;;;8.83;6.45;;;;;;;4.31;85.61;99847.33;1741717;81;21327;-78
2023/02/14 08:04:54;;;;;;;9.03;6.30;;;;;;;4.32;85.31;99847.67;1727673;81;21186;-82
2023/02/14 08:07:59;;;;;;;10.45;6.58;;;;;;;4.20;85.58;99836.69;1718903;82;21216;-80
2023/02/14 08:11:04;;;;;;;7.75;5.60;;;;;;;4.16;86.43;99844.74;1725220;81;21214;-79
2023/02/14 08:14:09;;;;;;;6.22;4.87;;;;;;;4.37;86.12;99830.98;1703186;82;21748;-78
2023/02/14 08:17:15;;;;;;;5.55;4.80;;;;;;;4.06;86.76;99835.80;1702160;82;21496;-80
2023/02/14 08:20:21;;;;;;;5.60;4.22;;;;;;;4.09;86.43;99844.48;1732515;81;21182;-80
2023/02/14 08:23:26;;;;;;;5.80;4.12;;;;;;;4.40;85.67;99851.01;1717584;82;21222;-81
2023/02/14 08:26:33;;;;;;;6.50;4.35;;;;;;;4.13;86.39;99846.38;1680506;83;22089;-81
2023/02/14 08:29:39;;;;;;;4.62;3.92;;;;;;;4.11;86.26;99860.58;1659971;84;21773;-80
2023/02/14 08:32:45;;;;;;;5.87;3.72;;;;;;;4.12;85.65;99869.05;1679523;83;21173;-80
2023/02/14 08:35:53;;;;;;;4.35;3.85;;;;;;;4.19;85.60;99860.70;1688318;83;21191;-80
2023/02/14 08:38:59;;;;;;;5.47;4.12;;;;;;;4.21;85.78;99862.75;1686144;83;21160;-81
2023/02/14 08:42:03;;;;;;;5.65;4.08;;;;;;;4.19;86.17;99858.00;1688496;83;21160;-79
2023/02/14 08:45:09;;;;;;;5.60;3.77;;;;;;;4.15;86.28;99862.00;1678449;83;22101;-79
2023/02/14 08:48:17;;;;;;;6.37;4.25;;;;;;;3.83;87.75;99867.23;1681940;83;21711;-79
2023/02/14 08:51:22;;;;;;;7.65;5.08;;;;;;;4.18;86.81;99862.19;1686804;83;21175;-80
2023/02/14 08:54:28;;;;;;;5.72;4.25;;;;;;;4.23;86.48;99866.66;1682905;85;21183;-81
2023/02/14 08:57:35;;;;;;;6.15;4.22;;;;;;;4.20;86.25;99871.87;1685456;85;21176;-81
2023/02/14 09:00:40;;;;;;;7.35;5.03;;;;;;;4.21;86.15;99882.20;1693464;83;21176;-81
2023/02/14 09:03:46;;;;;;;6.45;4.42;;;;;;;4.17;86.17;99874.02;1690006;83;21199;-81
2023/02/14 09:06:47;;;;;;;7.67;5.87;;;;;;;4.12;86.37;99878.52;1684456;83;21719;-80
2023/02/14 09:09:39;;;;;;;9.05;5.55;;;;;;;4.13;86.51;99878.86;1677313;83;21239;-81
2023/02/14 09:12:49;;;;;;;13.70;6.50;;;;;;;4.09;86.70;99881.50;1685757;83;21271;-80
2023/02/14 09:15:55;;;;;;;9.43;6.70;;;;;;;3.78;88.18;99888.96;1674786;83;21246;-81
2023/02/14 09:19:02;;;;;;;16.35;8.85;;;;;;;3.95;88.04;99886.02;1677410;85;21191;-81
2023/02/14 09:22:08;;;;;;;10.82;6.78;;;;;;;4.16;86.78;99882.64;1674190;83;21219;-81
2023/02/14 09:25:14;;;;;;;12.43;7.35;;;;;;;4.18;86.54;99893.31;1685851;82;21251;-81
2023/02/14 09:28:20;;;;;;;9.78;6.90;;;;;;;4.38;86.07;99882.81;1744224;82;21765;-81
2023/02/14 09:31:29;;;;;;;9.70;6.22;;;;;;;4.43;85.43;99879.66;1740849;82;21346;-81
2023/02/14 09:34:35;;;;;;;9.20;6.60;;;;;;;4.36;85.20;99883.44;1729233;82;21190;-81
2023/02/14 09:40:45;;;;;;;12.98;6.97;;;;;;;4.25;85.62;99868.73;1716048;82;21211;-81
2023/02/14 09:43:50;;;;;;;12.07;8.05;;;;;;;4.35;85.64;99869.05;1688439;82;21210;-81
2023/02/14 09:46:51;;;;;;;12.65;8.90;;;;;;;4.43;85.27;99875.60;1704639;82;21827;-82
2023/02/14 09:49:57;;;;;;;15.23;9.68;;;;;;;4.48;84.86;99875.50;1713801;82;21809;-82
2023/02/14 09:53:08;;;;;;;15.65;9.93;;;;;;;4.55;84.37;99864.92;1709041;82;21151;-81
2023/02/14 09:56:52;;;;;;;19.05;10.30;;;;;;;4.74;84.34;99870.25;1711996;82;21141;-82
2023/02/14 10:00:11;;;;;;;16.32;10.25;;;;;;;4.83;84.16;99861.23;1709465;82;21189;-82
2023/02/14 10:03:51;;;;;;;16.97;9.85;;;;;;;4.88;83.87;99861.63;1711331;82;21270;-81
2023/02/14 10:07:23;;;;;;;16.30;9.00;;;;;;;4.77;84.50;99865.05;1714593;82;21673;-81
2023/02/14 10:10:38;;;;;;;18.90;8.50;;;;;;;4.85;84.63;99871.43;1711310;82;21175;-81
2023/02/14 10:13:54;;;;;;;13.58;9.08;;;;;;;4.94;83.99;99860.66;1709093;82;21171;-81
2023/02/14 10:17:04;;;;;;;14.60;7.92;;;;;;;5.07;83.68;99857.10;1710334;84;21189;-82
2023/02/14 10:20:14;;;;;;;13.88;7.67;;;;;;;5.28;83.05;99869.89;1717885;82;21165;-81
2023/02/14 10:23:39;;;;;;;12.25;8.60;;;;;;;5.25;82.92;99870.19;1729970;82;21841;-82
2023/02/14 10:26:46;;;;;;;12.55;7.75;;;;;;;5.30;82.85;99872.44;1734296;81;21232;-83
2023/02/14 10:29:52;;;;;;;8.75;6.22;;;;;;;4.94;83.68;99870.16;1743363;82;21168;-82
2023/02/14 10:33:14;;;;;;;11.33;6.70;;;;;;;5.37;82.30;99882.53;1719703;83;21501;-83
2023/02/14 10:36:34;;;;;;;10.53;6.97;;;;;;;5.47;81.73;99871.61;1716472;83;21201;-82
2023/02/14 10:40:33;;;;;;;12.63;7.47;;;;;;;5.49;81.57;99862.80;1711975;83;21181;-81
2023/02/14 10:44:06;;;;;;;12.35;7.83;;;;;;;5.55;80.79;99864.92;1712337;83;21151;-83
2023/02/14 10:47:38;;;;;;;17.23;9.05;;;;;;;5.50;80.56;99858.23;1716514;83;21210;-81
2023/02/14 10:51:01;;;;;;;17.80;10.00;;;;;;;5.61;80.68;99846.66;1725484;83;21253;-81
2023/02/14 10:54:16;;;;;;;20.90;11.28;;;;;;;5.53;81.48;99852.50;1699489;83;21218;-83
2023/02/14 10:57:26;;;;;;;25.17;13.22;;;;;;;5.68;82.14;99839.23;1690325;83;21161;-83
2023/02/14 11:00:36;;;;;;;27.02;13.72;;;;;;;5.91;82.08;99841.80;1698318;83;21183;-82
2023/02/14 11:03:44;;;;;;;27.02;15.05;;;;;;;6.15;79.66;99847.95;1715789;83;21183;-83
2023/02/14 11:06:51;;;;;;;29.37;13.93;;;;;;;6.37;78.66;99843.86;1713895;82;21196;-83
2023/02/14 11:09:58;;;;;;;39.40;21.35;;;;;;;6.23;77.53;99857.52;1713983;82;21177;-81
2023/02/14 11:13:06;;;;;;;20.57;10.75;;;;;;;6.31;76.74;99843.16;1711403;83;21690;-81
2023/02/14 11:16:16;;;;;;;22.40;11.53;;;;;;;6.21;76.00;99827.45;1714869;83;21835;-82
2023/02/14 11:19:39;;;;;;;24.02;11.05;;;;;;;5.88;75.99;99835.32;1711041;83;21224;-82
2023/02/14 11:22:46;;;;;;;16.70;8.68;;;;;;;6.29;74.53;99834.30;1710318;82;21551;-81
2023/02/14 11:25:55;;;;;;;21.87;9.98;;;;;;;6.10;74.85;99840.79;1719381;83;21220;-81
2023/02/14 11:29:07;;;;;;;19.10;9.25;;;;;;;6.02;74.37;99832.58;1703664;82;21188;-82
2023/02/14 11:32:15;;;;;;;20.37;10.60;;;;;;;5.63;75.02;99840.55;1726412;82;21161;-82
2023/02/14 11:35:33;;;;;;;24.10;10.38;;;;;;;5.59;75.47;99830.16;1726441;81;21201;-81
2023/02/14 11:38:42;;;;;;;22.45;11.83;;;;;;;5.43;76.88;99825.96;1730151;81;21176;-80
2023/02/14 11:41:57;;;;;;;22.73;10.38;;;;;;;5.88;76.26;99824.47;1731847;81;21813;-80
2023/02/14 11:45:04;;;;;;;15.50;9.25;;;;;;;5.71;77.22;99826.22;1711668;82;21174;-82
2023/02/14 11:48:31;;;;;;;17.98;8.15;;;;;;;5.71;76.33;99824.86;1712925;81;21290;-82
2023/02/14 11:51:47;;;;;;;13.30;7.37;;;;;;;5.83;74.62;99828.16;1758031;81;21160;-81
2023/02/14 11:54:54;;;;;;;16.10;7.90;;;;;;;5.87;75.54;99814.12;1758475;81;21148;-80
2023/02/14 11:58:00;;;;;;;16.15;7.33;;;;;;;6.00;74.57;99811.53;1739340;81;21169;-81
2023/02/14 12:01:05;;;;;;;12.95;7.20;;;;;;;6.19;73.59;99824.05;1721503;83;21158;-81
2023/02/14 12:04:29;;;;;;;9.53;6.58;;;;;;;6.21;74.31;99814.75;1721988;83;21181;-83
2023/02/14 12:07:45;;;;;;;14.18;6.22;;;;;;;6.20;74.14;99810.81;1720794;82;21174;-82
2023/02/14 12:10:50;;;;;;;11.43;5.78;;;;;;;6.21;73.18;99817.46;1718804;82;21210;-82
2023/02/14 12:14:05;;;;;;;8.35;4.87;;;;;;;6.29;72.28;99816.13;1720716;83;21175;-83
2023/02/14 12:17:19;;;;;;;11.90;4.72;;;;;;;6.23;73.08;99805.07;1721453;83;21181;-83
2023/02/14 12:20:47;;;;;;;5.97;3.47;;;;;;;6.56;71.63;99811.53;1729560;82;21196;-82
2023/02/14 12:24:21;;;;;;;14.47;3.55;;;;;;;6.29;71.36;99818.00;1720008;82;21174;-82
2023/02/14 12:28:02;;;;;;;6.05;3.30;;;;;;;6.37;70.53;99818.90;1720825;82;21224;-81
2023/02/14 12:31:09;;;;;;;9.75;4.42;;;;;;;6.24;70.55;99825.78;1715483;83;21257;-83
2023/02/14 12:34:17;;;;;;;7.97;3.42;;;;;;;6.06;71.67;99805.45;1730826;82;21710;-83
2023/02/14 12:37:44;;;;;;;8.13;3.83;;;;;;;5.82;72.96;99832.73;1713900;82;21726;-83
2023/02/14 12:41:08;;;;;;;10.10;3.90;;;;;;;5.75;72.64;99820.83;1711593;83;21185;-83
2023/02/14 12:44:27;;;;;;;5.95;3.77;;;;;;;5.71;72.62;99839.78;1713269;83;21239;-81
2023/02/14 12:47:57;;;;;;;11.60;3.65;;;;;;;5.70;72.75;99839.44;1689727;83;22103;-80
2023/02/14 12:51:33;;;;;;;9.73;3.67;;;;;;;5.37;74.08;99843.71;1719907;83;21706;-83
2023/02/14 12:55:19;;;;;;;6.08;3.30;;;;;;;5.43;75.37;99859.87;1715360;83;21156;-81
2023/02/14 12:58:58;;;;;;;8.40;3.50;;;;;;;5.28;75.92;99859.05;1714528;83;21171;-81
2023/02/14 13:02:13;;;;;;;6.28;3.10;;;;;;;5.09;76.70;99852.39;1712436;83;21200;-83
2023/02/14 13:06:01;;;;;;;6.53;3.70;;;;;;;5.08;76.85;99856.09;1728270;82;21734;-81
2023/02/14 13:09:19;;;;;;;5.53;3.00;;;;;;;5.12;76.63;99864.27;1712353;83;21269;-82
2023/02/14 13:12:37;;;;;;;8.30;3.98;;;;;;;5.17;76.32;99866.02;1714290;82;21177;-81
2023/02/14 13:16:00;;;;;;;8.30;3.42;;;;;;;4.74;77.76;99863.48;1712068;82;21198;-81
2023/02/14 13:19:25;;;;;;;7.00;3.47;;;;;;;4.60;79.32;99868.03;1715536;83;21813;-81
2023/02/14 13:22:32;;;;;;;7.30;3.60;;;;;;;4.54;80.37;99865.93;1716926;83;21166;-81
2023/02/14 13:25:48;;;;;;;7.67;3.62;;;;;;;4.25;81.06;99856.05;1714315;83;21815;-83
2023/02/14 13:29:01;;;;;;;8.08;3.87;;;;;;;4.28;81.29;99857.13;1716677;83;21659;-82
2023/02/14 13:32:09;;;;;;;9.93;3.90;;;;;;;4.23;81.53;99855.33;1715748;83;21199;-82
2023/02/14 13:35:08;;;;;;;6.85;3.65;;;;;;;4.19;81.72;99860.70;1722679;83;21766;-82
2023/02/14 13:38:10;;;;;;;8.98;3.70;;;;;;;4.45;80.19;99870.38;1721640;83;21143;-82
2023/02/14 13:41:16;;;;;;;6.90;3.87;;;;;;;4.30;80.78;99870.00;1729635;83;21180;-81
2023/02/14 13:44:16;;;;;;;7.10;3.77;;;;;;;4.43;80.31;99878.31;1721706;83;21152;-82
2023/02/14 13:47:31;;;;;;;12.23;5.22;;;;;;;4.19;80.93;99874.71;1720419;83;21180;-82
2023/02/14 13:50:36;;;;;;;14.85;5.33;;;;;;;4.15;81.33;99882.80;1719039;83;21197;-82
2023/02/14 13:53:52;;;;;;;9.63;4.20;;;;;;;4.24;81.63;99893.61;1717065;83;21141;-81
2023/02/14 13:56:57;;;;;;;10.88;4.47;;;;;;;4.27;82.01;99900.56;1712924;83;21247;-80
2023/02/14 14:00:27;;;;;;;10.98;4.47;;;;;;;4.15;82.67;99884.16;1726463;83;21205;-81
2023/02/14 14:03:40;;;;;;;7.75;4.05;;;;;;;4.09;83.28;99880.15;1730098;83;21778;-82
2023/02/14 14:07:14;;;;;;;7.28;4.28;;;;;;;3.95;82.83;99891.42;1731240;83;21229;-80
2023/02/14 14:10:20;;;;;;;9.88;4.05;;;;;;;3.81;83.69;99888.19;1731077;83;21155;-81
2023/02/14 14:13:49;;;;;;;9.73;3.72;;;;;;;3.87;83.58;99892.66;1731305;83;21173;-79
2023/02/14 14:17:05;;;;;;;8.68;4.08;;;;;;;3.78;83.85;99885.75;1731273;83;21847;-82
2023/02/14 14:20:28;;;;;;;8.23;4.20;;;;;;;3.72;83.94;99890.89;1730903;83;21173;-80
2023/02/14 14:23:38;;;;;;;10.13;4.95;;;;;;;4.15;82.89;99892.27;1730734;83;21356;-82
2023/02/14 14:26:49;;;;;;;7.92;4.03;;;;;;;4.06;83.36;99892.14;1731273;83;21370;-81
2023/02/14 14:30:06;;;;;;;9.40;3.50;;;;;;;4.17;82.69;99886.20;1731455;83;21542;-83
2023/02/14 14:33:29;;;;;;;8.13;3.50;;;;;;;4.18;82.62;99886.55;1752383;82;21522;-80
2023/02/14 14:36:36;;;;;;;9.15;3.50;;;;;;;4.20;82.46;99889.98;1752409;82;21171;-81
2023/02/14 14:39:42;;;;;;;6.67;3.72;;;;;;;4.10;82.19;99886.80;1752311;82;21145;-80
2023/02/14 14:42:48;;;;;;;7.92;3.70;;;;;;;4.17;81.67;99881.64;1759864;81;21168;-82
2023/02/14 14:45:55;;;;;;;5.92;3.12;;;;;;;4.09;81.77;99892.33;1761277;81;21168;-82
2023/02/14 14:49:01;;;;;;;6.90;3.40;;;;;;;4.01;81.74;99889.02;1752183;82;21737;-82
2023/02/14 14:52:06;;;;;;;7.33;3.58;;;;;;;3.99;81.73;99889.64;1752346;82;21227;-82
2023/02/14 14:55:13;;;;;;;11.40;4.37;;;;;;;3.96;81.64;99895.36;1752478;82;21717;-82
2023/02/14 14:58:40;;;;;;;9.83;3.52;;;;;;;4.03;81.28;99903.74;1752317;82;21721;-82
2023/02/14 15:01:46;;;;;;;7.08;3.40;;;;;;;4.04;81.16;99905.44;1752322;82;21172;-81
2023/02/14 15:04:51;;;;;;;5.12;3.30;;;;;;;3.56;82.19;99915.78;1752474;82;21160;-80
2023/02/14 15:07:57;;;;;;;10.25;3.80;;;;;;;3.60;83.66;99909.09;1751986;82;21165;-82
2023/02/14 15:14:53;;;;;;;14.38;3.72;;;;;;;3.81;82.89;99911.66;1752200;82;21718;-81